createdAt,value
2023-04-12T00:01:06.067Z,9.81
2023-04-12T00:03:37.776Z,9.79
2023-04-12T00:06:07.355Z,9.83
2023-04-12T00:08:35.403Z,9.93
2023-04-12T00:11:03.739Z,9.46
2023-04-12T00:13:31.781Z,10.17
2023-04-12T00:15:59.871Z,10.08
2023-04-12T00:18:27.453Z,10.12
2023-04-12T00:20:58.073Z,9.66
2023-04-12T00:23:26.492Z,9.85
2023-04-12T00:25:54.088Z,9.96
2023-04-12T00:28:21.769Z,9.86
2023-04-12T00:30:50.739Z,9.81
2023-04-12T00:33:18.026Z,9.62
2023-04-12T00:35:45.833Z,9.70
2023-04-12T00:38:19.724Z,9.57
2023-04-12T00:41:07.313Z,9.48
2023-04-12T00:43:49.896Z,10.09
2023-04-12T00:46:32.693Z,9.78
2023-04-12T00:49:41.508Z,9.56
2023-04-12T00:52:15.809Z,9.71
2023-04-12T00:54:56.717Z,9.97
2023-04-12T00:57:48.381Z,9.92
2023-04-12T01:00:53.013Z,9.65
2023-04-12T01:03:23.422Z,9.74
2023-04-12T01:06:10.630Z,10.09
2023-04-12T01:08:40.942Z,9.81
2023-04-12T01:11:33.618Z,9.42
2023-04-12T01:14:04.605Z,9.94
2023-04-12T01:16:51.506Z,9.95
2023-04-12T01:19:31.791Z,9.76
2023-04-12T01:22:07.541Z,9.79
2023-04-12T01:25:16.447Z,9.25
2023-04-12T01:27:46.824Z,9.34
2023-04-12T01:30:15.975Z,9.32
2023-04-12T01:32:47.927Z,9.06
2023-04-12T01:35:19.666Z,9.15
2023-04-12T01:37:47.149Z,9.40
2023-04-12T01:40:18.015Z,9.43
2023-04-12T01:42:46.971Z,9.50
2023-04-12T01:45:14.621Z,9.92
2023-04-12T01:47:42.907Z,9.70
2023-04-12T01:50:12.126Z,9.60
2023-04-12T01:53:18.684Z,9.51
2023-04-12T01:56:09.997Z,9.57
2023-04-12T01:58:57.421Z,9.38
2023-04-12T02:02:12.421Z,9.33
2023-04-12T02:04:41.934Z,9.35
2023-04-12T02:07:09.755Z,9.35
2023-04-12T02:09:38.734Z,9.34
2023-04-12T02:12:06.971Z,9.25
2023-04-12T02:14:35.878Z,9.10
2023-04-12T02:17:04.757Z,9.04
2023-04-12T02:19:32.839Z,9.04
2023-04-12T02:22:02.373Z,9.10
2023-04-12T02:24:33.804Z,9.01
2023-04-12T02:27:02.831Z,9.06
2023-04-12T02:29:31.462Z,9.11
2023-04-12T02:32:01.505Z,8.57
2023-04-12T02:34:34.258Z,8.88
2023-04-12T02:37:09.522Z,8.86
2023-04-12T02:39:41.641Z,8.32
2023-04-12T02:42:09.698Z,8.55
2023-04-12T02:44:38.017Z,8.86
2023-04-12T02:47:07.980Z,8.40
2023-04-12T02:49:39.068Z,8.71
2023-04-12T02:52:21.352Z,8.56
2023-04-12T02:55:22.145Z,8.82
2023-04-12T02:58:19.079Z,8.87
2023-04-12T03:01:15.533Z,8.61
2023-04-12T03:03:58.699Z,8.90
2023-04-12T03:06:33.570Z,8.73
2023-04-12T03:09:05.675Z,9.12
2023-04-12T03:11:34.928Z,8.85
2023-04-12T03:14:02.675Z,8.93
2023-04-12T03:16:32.433Z,8.72
2023-04-12T03:19:02.958Z,8.61
2023-04-12T03:21:32.554Z,8.49
2023-04-12T03:24:14.467Z,8.72
2023-04-12T03:27:09.720Z,9.00
2023-04-12T03:30:00.641Z,9.25
2023-04-12T03:32:52.625Z,9.07
2023-04-12T03:35:45.494Z,8.78
2023-04-12T03:38:36.561Z,8.53
2023-04-12T03:41:10.943Z,8.84
2023-04-12T03:43:38.770Z,8.81
2023-04-12T03:46:07.197Z,8.95
2023-04-12T03:48:36.457Z,9.25
2023-04-12T03:51:08.077Z,9.07
2023-04-12T03:53:37.077Z,9.11
2023-04-12T03:56:07.897Z,9.29
2023-04-12T03:58:36.323Z,9.41
2023-04-12T04:01:09.394Z,9.62
2023-04-12T04:03:38.141Z,9.16
2023-04-12T04:06:07.037Z,9.38
2023-04-12T04:11:16.969Z,9.32
2023-04-12T04:13:47.239Z,9.03
2023-04-12T04:16:18.341Z,9.01
2023-04-12T04:18:46.602Z,8.68
2023-04-12T04:21:16.177Z,8.68
2023-04-12T04:23:45.725Z,8.62
2023-04-12T04:26:15.796Z,7.73
2023-04-12T04:28:45.612Z,8.29
2023-04-12T04:31:14.312Z,8.28
2023-04-12T04:33:43.422Z,8.11
2023-04-12T04:36:16.552Z,8.20
2023-04-12T04:38:46.154Z,8.29
2023-04-12T04:41:23.693Z,8.13
2023-04-12T04:43:54.462Z,8.03
2023-04-12T04:46:24.933Z,8.38
2023-04-12T04:48:55.651Z,8.17
2023-04-12T04:51:33.180Z,8.26
2023-04-12T04:54:03.841Z,8.11
2023-04-12T04:56:32.810Z,8.02
2023-04-12T04:59:09.893Z,8.79
2023-04-12T05:01:43.851Z,8.33
2023-04-12T05:04:17.055Z,8.45
2023-04-12T05:06:47.218Z,8.76
2023-04-12T05:09:16.769Z,8.78
2023-04-12T05:11:47.939Z,9.12
2023-04-12T05:14:17.444Z,8.94
2023-04-12T05:16:46.963Z,8.93
2023-04-12T05:19:22.031Z,8.69
2023-04-12T05:21:51.264Z,9.05
2023-04-12T05:24:19.953Z,9.11
2023-04-12T05:26:51.040Z,9.06
2023-04-12T05:29:19.296Z,9.17
2023-04-12T05:31:47.389Z,8.87
2023-04-12T05:36:54.734Z,9.70
2023-04-12T05:39:24.307Z,9.93
2023-04-12T05:41:53.826Z,9.95
2023-04-12T05:44:21.266Z,9.83
2023-04-12T05:46:49.052Z,9.70
2023-04-12T05:49:36.805Z,10.27
2023-04-12T05:52:13.739Z,10.39
2023-04-12T05:54:43.029Z,10.27
2023-04-12T05:57:12.824Z,10.03
2023-04-12T05:59:46.671Z,10.03
2023-04-12T06:02:21.069Z,9.89
2023-04-12T06:04:51.604Z,10.16
2023-04-12T06:07:21.332Z,10.47
2023-04-12T06:09:50.198Z,10.46
2023-04-12T06:12:32.988Z,10.62
2023-04-12T06:15:15.740Z,11.13
2023-04-12T06:17:43.902Z,10.86
2023-04-12T06:20:12.358Z,11.30
2023-04-12T06:22:41.804Z,11.13
2023-04-12T06:25:10.807Z,10.74
2023-04-12T06:27:40.904Z,10.80
2023-04-12T06:30:10.688Z,10.69
2023-04-12T06:35:14.769Z,11.37
2023-04-12T06:38:06.821Z,11.59
2023-04-12T06:40:48.692Z,11.27
2023-04-12T06:43:37.745Z,11.84
2023-04-12T06:46:29.834Z,11.50
2023-04-12T06:49:11.978Z,11.70
2023-04-12T06:52:04.685Z,11.68
2023-04-12T06:54:52.267Z,11.94
2023-04-12T06:57:34.830Z,12.05
2023-04-12T07:00:26.150Z,11.93
2023-04-12T07:03:10.479Z,12.40
2023-04-12T07:05:55.424Z,12.30
2023-04-12T07:11:24.782Z,12.51
2023-04-12T07:14:15.777Z,12.41
2023-04-12T07:16:55.805Z,12.71
2023-04-12T07:19:39.642Z,12.59
2023-04-12T07:22:23.253Z,12.34
2023-04-12T07:25:10.695Z,12.52
2023-04-12T07:28:03.640Z,12.56
2023-04-12T07:30:47.447Z,12.95
2023-04-12T07:36:16.831Z,13.07
2023-04-12T07:39:14.442Z,13.32
2023-04-12T07:41:54.634Z,13.64
2023-04-12T07:44:49.745Z,13.27
2023-04-12T07:47:35.869Z,13.69
2023-04-12T07:50:18.491Z,13.53
2023-04-12T07:53:24.698Z,13.77
2023-04-12T07:56:18.246Z,14.04
2023-04-12T07:59:01.230Z,13.69
2023-04-12T08:01:56.441Z,14.07
2023-04-12T08:04:39.523Z,13.88
2023-04-12T08:07:32.577Z,14.50
2023-04-12T08:10:12.780Z,14.81
2023-04-12T08:13:00.837Z,14.73
2023-04-12T08:15:56.907Z,14.73
2023-04-12T08:18:40.962Z,14.49
2023-04-12T08:21:36.294Z,14.99
2023-04-12T08:24:21.826Z,14.95
2023-04-12T08:27:14.100Z,14.79
2023-04-12T08:29:53.936Z,14.70
2023-04-12T08:32:45.806Z,14.44
2023-04-12T08:35:32.793Z,14.62
2023-04-12T08:38:41.542Z,14.75
2023-04-12T08:41:05.905Z,15.18
2023-04-12T08:43:57.806Z,14.95
2023-04-12T08:46:40.043Z,15.21
2023-04-12T08:49:25.894Z,15.33
2023-04-12T08:52:17.901Z,15.26
2023-04-12T08:55:03.289Z,15.20
2023-04-12T08:57:56.866Z,15.10
2023-04-12T09:00:37.225Z,15.16
2023-04-12T09:03:33.353Z,15.27
2023-04-12T09:06:12.871Z,15.70
2023-04-12T09:08:56.359Z,15.29
2023-04-12T09:11:51.228Z,15.78
2023-04-12T09:14:30.962Z,15.35
2023-04-12T09:17:26.569Z,15.99
2023-04-12T09:20:19.022Z,16.05
2023-04-12T09:23:05.816Z,15.92
2023-04-12T09:25:57.648Z,16.22
2023-04-12T09:28:46.471Z,15.84
2023-04-12T09:31:40.589Z,15.05
2023-04-12T09:34:31.136Z,16.18
2023-04-12T09:37:26.520Z,16.68
2023-04-12T09:40:07.589Z,16.30
2023-04-12T09:43:03.981Z,16.56
2023-04-12T09:45:46.661Z,16.74
2023-04-12T09:48:54.521Z,16.68
2023-04-12T09:51:37.865Z,16.29
2023-04-12T09:54:23.771Z,15.93
2023-04-12T09:57:27.156Z,15.75
2023-04-12T10:00:18.268Z,16.09
2023-04-12T10:03:08.389Z,16.27
2023-04-12T10:06:05.723Z,16.53
2023-04-12T10:08:44.745Z,17.23
2023-04-12T10:11:27.334Z,16.76
2023-04-12T10:14:18.897Z,16.53
2023-04-12T10:16:59.819Z,16.70
2023-04-12T10:19:43.286Z,16.75
2023-04-12T10:22:36.261Z,17.08
2023-04-12T10:25:22.838Z,16.76
2023-04-12T10:28:21.927Z,17.43
2023-04-12T10:31:31.772Z,17.47
2023-04-12T10:34:15.881Z,17.28
2023-04-12T10:36:59.499Z,17.79
2023-04-12T10:39:54.753Z,17.61
2023-04-12T10:42:35.757Z,18.06
2023-04-12T10:45:24.910Z,18.08
2023-04-12T10:48:07.188Z,18.26
2023-04-12T10:51:25.705Z,17.96
2023-04-12T10:54:17.404Z,17.70
2023-04-12T10:57:10.084Z,17.75
2023-04-12T10:59:57.801Z,17.97
2023-04-12T11:03:06.558Z,17.85
2023-04-12T11:06:16.149Z,18.02
2023-04-12T11:08:46.155Z,17.90
2023-04-12T11:11:34.949Z,18.27
2023-04-12T11:14:22.079Z,18.75
2023-04-12T11:19:54.650Z,19.09
2023-04-12T11:22:46.539Z,19.08
2023-04-12T11:25:29.151Z,18.86
2023-04-12T11:28:25.202Z,18.52
2023-04-12T11:30:59.126Z,18.42
2023-04-12T11:36:34.304Z,18.96
2023-04-12T11:39:14.035Z,19.20
2023-04-12T11:42:12.636Z,18.86
2023-04-12T11:44:58.434Z,19.33
2023-04-12T11:47:44.860Z,19.24
2023-04-12T11:50:28.986Z,19.32
2023-04-12T11:53:27.800Z,19.31
2023-04-12T11:56:08.904Z,19.46
2023-04-12T11:58:53.187Z,19.19
2023-04-12T12:01:50.842Z,19.35
2023-04-12T12:04:35.224Z,19.77
2023-04-12T12:10:01.785Z,19.90
2023-04-12T12:12:52.670Z,19.50
2023-04-12T12:15:25.186Z,19.63
2023-04-12T12:18:09.824Z,19.23
2023-04-12T12:20:53.094Z,19.52
2023-04-12T12:23:39.665Z,20.06
2023-04-12T12:30:11.733Z,19.59
2023-04-12T12:33:07.141Z,19.66
2023-04-12T12:35:59.266Z,19.93
2023-04-12T12:38:54.764Z,19.97
2023-04-12T12:41:39.373Z,19.50
2023-04-12T12:44:29.282Z,20.05
2023-04-12T12:47:14.618Z,19.26
2023-04-12T12:49:59.094Z,20.11
2023-04-12T12:52:43.103Z,20.18
2023-04-12T12:58:11.889Z,18.92
2023-04-12T13:00:48.063Z,19.41
2023-04-12T13:03:33.102Z,19.73
2023-04-12T13:06:17.607Z,19.36
2023-04-12T13:08:57.778Z,19.88
2023-04-12T13:11:53.872Z,19.75
2023-04-12T13:14:45.323Z,19.98
2023-04-12T13:17:16.669Z,19.78
2023-04-12T13:19:57.737Z,19.93
2023-04-12T13:22:41.867Z,19.95
2023-04-12T13:28:20.921Z,19.79
2023-04-12T13:31:04.015Z,19.83
2023-04-12T13:33:46.969Z,19.58
2023-04-12T13:36:31.202Z,19.11
2023-04-12T13:39:26.264Z,19.17
2023-04-12T13:42:09.909Z,19.67
2023-04-12T13:44:52.835Z,19.76
2023-04-12T13:47:37.127Z,19.77
2023-04-12T13:50:31.495Z,19.64
2023-04-12T13:53:14.696Z,19.57
2023-04-12T13:56:10.965Z,19.66
2023-04-12T13:58:53.109Z,19.34
2023-04-12T14:01:46.138Z,19.43
2023-04-12T14:04:31.222Z,19.13
2023-04-12T14:07:43.581Z,19.25
2023-04-12T14:10:29.207Z,19.74
2023-04-12T14:13:28.983Z,19.39
2023-04-12T14:16:53.797Z,19.36
2023-04-12T14:19:42.627Z,20.08
2023-04-12T14:22:26.709Z,19.92
2023-04-12T14:25:18.910Z,19.34
2023-04-12T14:28:16.832Z,19.30
2023-04-12T14:30:57.185Z,19.53
2023-04-12T14:33:49.043Z,18.97
2023-04-12T14:36:34.700Z,19.65
2023-04-12T14:39:36.655Z,19.49
2023-04-12T14:42:05.843Z,19.43
2023-04-12T14:44:52.698Z,19.84
2023-04-12T14:47:39.030Z,19.93
2023-04-12T14:50:38.756Z,19.56
2023-04-12T14:53:28.299Z,19.56
2023-04-12T14:56:23.773Z,19.21
2023-04-12T14:59:14.078Z,19.06
2023-04-12T15:01:58.553Z,18.81
2023-04-12T15:04:53.818Z,19.47
2023-04-12T15:07:46.237Z,19.06
2023-04-12T15:10:33.040Z,19.01
2023-04-12T15:13:33.748Z,19.01
2023-04-12T15:16:16.019Z,19.09
2023-04-12T15:19:18.901Z,19.34
2023-04-12T15:21:55.626Z,19.58
2023-04-12T15:24:51.393Z,19.02
2023-04-12T15:27:47.697Z,19.39
2023-04-12T15:30:31.722Z,19.19
2023-04-12T15:33:27.276Z,18.96
2023-04-12T15:36:11.605Z,18.98
2023-04-12T15:41:47.466Z,18.88
2023-04-12T15:44:34.239Z,18.87
2023-04-12T15:47:29.709Z,18.87
2023-04-12T15:50:29.020Z,18.88
2023-04-12T15:53:21.672Z,19.09
2023-04-12T15:56:26.682Z,18.87
2023-04-12T15:59:18.791Z,18.88
2023-04-12T16:02:15.724Z,18.98
2023-04-12T16:05:17.133Z,18.80
2023-04-12T16:10:27.031Z,18.88
2023-04-12T16:12:56.660Z,18.62
2023-04-12T16:15:27.054Z,18.53
2023-04-12T16:20:34.776Z,18.37
2023-04-12T16:23:17.639Z,18.35
2023-04-12T16:28:29.675Z,18.35
2023-04-12T16:31:00.770Z,18.39
2023-04-12T16:33:45.168Z,18.23
2023-04-12T16:36:16.719Z,18.35
2023-04-12T16:38:45.606Z,18.41
2023-04-12T16:41:20.604Z,18.25
2023-04-12T16:46:34.002Z,18.23
2023-04-12T16:49:08.302Z,18.11
2023-04-12T16:51:55.816Z,18.01
2023-04-12T16:54:31.763Z,17.96
2023-04-12T16:57:08.802Z,17.87
2023-04-12T17:02:24.993Z,17.85
2023-04-12T17:04:57.044Z,17.63
2023-04-12T17:07:27.234Z,17.62
2023-04-12T17:10:01.177Z,17.50
2023-04-12T17:12:36.725Z,17.42
2023-04-12T17:15:04.536Z,17.12
2023-04-12T17:17:36.814Z,17.07
2023-04-12T17:23:03.643Z,16.50
2023-04-12T17:25:45.281Z,16.23
2023-04-12T17:28:44.820Z,16.03
2023-04-12T17:34:18.860Z,15.51
2023-04-12T17:37:07.246Z,15.04
2023-04-12T17:39:54.540Z,15.24
2023-04-12T17:42:48.775Z,15.17
2023-04-12T17:45:32.941Z,14.92
2023-04-12T17:48:32.893Z,14.93
2023-04-12T17:51:21.930Z,15.21
2023-04-12T17:54:17.127Z,15.21
2023-04-12T17:57:20.750Z,14.64
2023-04-12T18:00:16.015Z,14.56
2023-04-12T18:03:10.861Z,14.52
2023-04-12T18:06:11.889Z,14.78
2023-04-12T18:08:53.054Z,14.34
2023-04-12T18:11:47.030Z,14.21
2023-04-12T18:14:41.760Z,14.22
2023-04-12T18:23:02.784Z,14.03
2023-04-12T18:25:46.813Z,13.88
2023-04-12T18:28:23.899Z,13.82
2023-04-12T18:30:58.157Z,13.95
2023-04-12T18:33:33.024Z,13.91
2023-04-12T18:36:12.953Z,14.00
2023-04-12T18:38:49.792Z,14.03
2023-04-12T18:41:27.579Z,13.99
2023-04-12T18:44:05.165Z,13.66
2023-04-12T18:46:37.039Z,13.48
2023-04-12T18:49:12.770Z,13.32
2023-04-12T18:51:48.128Z,13.13
2023-04-12T18:54:27.257Z,13.34
2023-04-12T18:59:38.815Z,13.43
2023-04-12T19:04:57.837Z,13.40
2023-04-12T19:10:05.190Z,12.88
2023-04-12T19:12:41.019Z,12.95
2023-04-12T19:15:11.700Z,13.20
2023-04-12T19:17:44.780Z,12.72
2023-04-12T19:20:28.721Z,12.84
2023-04-12T19:25:35.625Z,12.88
2023-04-12T19:28:11.692Z,12.86
2023-04-12T19:33:27.791Z,12.80
2023-04-12T19:36:01.640Z,12.41
2023-04-12T19:38:32.812Z,12.46
2023-04-12T19:41:07.448Z,12.23
2023-04-12T19:43:42.673Z,12.39
2023-04-12T19:46:18.830Z,12.65
2023-04-12T19:48:48.926Z,12.48
2023-04-12T19:51:24.272Z,12.41
2023-04-12T19:56:36.193Z,12.12
2023-04-12T19:59:06.860Z,12.23
2023-04-12T20:01:49.017Z,12.50
2023-04-12T20:04:35.906Z,12.49
2023-04-12T20:07:06.696Z,12.52
2023-04-12T20:09:37.653Z,12.49
2023-04-12T20:14:44.758Z,12.25
2023-04-12T20:17:13.050Z,12.21
2023-04-12T20:19:47.132Z,12.25
2023-04-12T20:22:16.721Z,12.13
2023-04-12T20:24:59.499Z,12.16
2023-04-12T20:27:42.631Z,12.25
2023-04-12T20:30:11.686Z,12.06
2023-04-12T20:32:42.087Z,11.90
2023-04-12T20:37:52.004Z,11.97
2023-04-12T20:40:23.356Z,11.97
2023-04-12T20:42:56.906Z,12.00
2023-04-12T20:45:31.302Z,11.84
2023-04-12T20:48:09.956Z,11.72
2023-04-12T20:50:41.081Z,11.73
2023-04-12T20:53:15.238Z,11.75
2023-04-12T20:55:56.590Z,11.57
2023-04-12T20:58:24.597Z,11.12
2023-04-12T21:00:57.097Z,11.08
2023-04-12T21:06:25.823Z,11.12
2023-04-12T21:08:53.960Z,11.09
2023-04-12T21:11:23.178Z,10.89
2023-04-12T21:13:54.751Z,11.32
2023-04-12T21:16:26.622Z,11.27
2023-04-12T21:18:56.901Z,11.14
2023-04-12T21:21:27.447Z,11.12
2023-04-12T21:24:05.835Z,10.92
2023-04-12T21:26:33.897Z,10.84
2023-04-12T21:29:02.745Z,11.01
2023-04-12T21:31:30.889Z,11.01
2023-04-12T21:34:07.320Z,10.81
2023-04-12T21:36:35.006Z,10.91
2023-04-12T21:39:04.444Z,10.87
2023-04-12T21:41:31.731Z,11.09
2023-04-12T21:44:00.114Z,11.06
2023-04-12T21:46:28.901Z,11.10
2023-04-12T21:48:57.288Z,10.67
2023-04-12T21:51:26.850Z,10.66
2023-04-12T21:53:54.642Z,10.62
2023-04-12T21:59:36.517Z,10.96
2023-04-12T22:02:04.085Z,10.65
2023-04-12T22:04:34.365Z,10.73
2023-04-12T22:07:06.813Z,10.81
2023-04-12T22:09:35.815Z,10.82
2023-04-12T22:12:10.057Z,10.95
2023-04-12T22:14:46.846Z,10.72
2023-04-12T22:17:14.987Z,10.69
2023-04-12T22:19:43.061Z,10.60
2023-04-12T22:22:12.218Z,10.68
2023-04-12T22:24:39.989Z,10.62
2023-04-12T22:27:09.395Z,10.49
2023-04-12T22:29:38.027Z,10.51
2023-04-12T22:32:05.668Z,10.63
2023-04-12T22:34:33.997Z,10.45
2023-04-12T22:37:03.508Z,10.51
2023-04-12T22:39:35.434Z,10.47
2023-04-12T22:42:04.251Z,10.46
2023-04-12T22:44:38.256Z,10.50
2023-04-12T22:47:08.608Z,10.56
2023-04-12T22:49:44.244Z,10.57
2023-04-12T22:52:12.186Z,10.56
2023-04-12T22:54:40.339Z,10.45
2023-04-12T22:57:17.809Z,10.45
2023-04-12T22:59:45.617Z,10.76
2023-04-12T23:02:14.929Z,10.59
2023-04-12T23:04:44.208Z,10.62
2023-04-12T23:07:19.102Z,10.64
2023-04-12T23:09:47.391Z,10.58
2023-04-12T23:12:15.333Z,10.71
2023-04-12T23:14:43.487Z,10.80
2023-04-12T23:17:11.092Z,10.76
2023-04-12T23:19:38.995Z,10.63
2023-04-12T23:22:06.372Z,10.53
2023-04-12T23:24:37.120Z,10.76
2023-04-12T23:27:05.959Z,10.80
2023-04-12T23:29:35.184Z,10.78
2023-04-12T23:32:03.449Z,11.03
2023-04-12T23:34:31.329Z,10.58
2023-04-12T23:37:00.160Z,10.68
2023-04-12T23:39:28.739Z,10.85
2023-04-12T23:41:56.452Z,10.72
2023-04-12T23:44:25.534Z,10.88
2023-04-12T23:46:53.334Z,10.93
2023-04-12T23:49:21.041Z,10.98
2023-04-12T23:51:48.361Z,10.95
2023-04-12T23:54:17.321Z,10.97
2023-04-12T23:56:45.941Z,11.07
2023-04-12T23:59:13.221Z,10.98
